sensor_id;sensor_type;location;lat;lon;timestamp;pressure;altitude;pressure_sealevel;temperature;humidity
50282;BME280;36176;51.506;10.272;2022-12-18T00:02:03;100893.25;;;-12.38;81.90
50282;BME280;36176;51.506;10.272;2022-12-18T00:04:31;100883.81;;;-12.39;81.80
50282;BME280;36176;51.506;10.272;2022-12-18T00:06:58;100887.16;;;-12.40;82.48
50282;BME280;36176;51.506;10.272;2022-12-18T00:09:25;100884.59;;;-12.40;82.54
50282;BME280;36176;51.506;10.272;2022-12-18T00:12:06;100885.59;;;-12.38;81.97
50282;BME280;36176;51.506;10.272;2022-12-18T00:14:42;100892.25;;;-12.40;82.25
50282;BME280;36176;51.506;10.272;2022-12-18T00:17:09;100895.81;;;-12.38;81.89
50282;BME280;36176;51.506;10.272;2022-12-18T00:19:36;100896.28;;;-12.44;81.74
50282;BME280;36176;51.506;10.272;2022-12-18T00:22:03;100892.63;;;-12.48;81.78
50282;BME280;36176;51.506;10.272;2022-12-18T00:24:30;100903.53;;;-12.50;81.97
50282;BME280;36176;51.506;10.272;2022-12-18T00:26:57;100904.19;;;-12.53;81.66
50282;BME280;36176;51.506;10.272;2022-12-18T00:29:24;58343.00;;;-145.31;100.00
50282;BME280;36176;51.506;10.272;2022-12-18T00:31:51;58343.00;;;-145.31;100.00
50282;BME280;36176;51.506;10.272;2022-12-18T00:34:18;58343.00;;;-145.31;100.00
50282;BME280;36176;51.506;10.272;2022-12-18T00:36:47;58343.00;;;-145.31;100.00
50282;BME280;36176;51.506;10.272;2022-12-18T00:39:14;58343.00;;;-145.31;100.00
50282;BME280;36176;51.506;10.272;2022-12-18T00:41:41;58343.00;;;-145.31;100.00
50282;BME280;36176;51.506;10.272;2022-12-18T00:44:27;58343.00;;;-145.31;100.00
50282;BME280;36176;51.506;10.272;2022-12-18T00:47:00;58343.00;;;-145.31;100.00
50282;BME280;36176;51.506;10.272;2022-12-18T00:49:27;58343.00;;;-145.31;100.00
50282;BME280;36176;51.506;10.272;2022-12-18T00:51:54;58343.00;;;-145.31;100.00
50282;BME280;36176;51.506;10.272;2022-12-18T00:54:21;58343.00;;;-145.31;100.00
50282;BME280;36176;51.506;10.272;2022-12-18T00:56:48;58343.00;;;-145.31;100.00
50282;BME280;36176;51.506;10.272;2022-12-18T00:59:17;58343.00;;;-145.31;100.00
50282;BME280;36176;51.506;10.272;2022-12-18T01:01:44;58343.00;;;-145.31;100.00
50282;BME280;36176;51.506;10.272;2022-12-18T01:04:12;58343.00;;;-145.31;100.00
50282;BME280;36176;51.506;10.272;2022-12-18T01:06:40;58343.00;;;-145.31;100.00
50282;BME280;36176;51.506;10.272;2022-12-18T01:09:07;58343.00;;;-145.31;100.00
50282;BME280;36176;51.506;10.272;2022-12-18T01:11:34;58343.00;;;-145.31;100.00
50282;BME280;36176;51.506;10.272;2022-12-18T01:14:01;58343.00;;;-145.31;100.00
50282;BME280;36176;51.506;10.272;2022-12-18T01:16:28;58343.00;;;-145.31;100.00
50282;BME280;36176;51.506;10.272;2022-12-18T01:18:55;58343.00;;;-145.31;100.00
50282;BME280;36176;51.506;10.272;2022-12-18T01:21:23;58343.00;;;-145.31;100.00
50282;BME280;36176;51.506;10.272;2022-12-18T01:23:52;58343.00;;;-145.31;100.00
50282;BME280;36176;51.506;10.272;2022-12-18T01:26:19;58343.00;;;-145.31;100.00
50282;BME280;36176;51.506;10.272;2022-12-18T01:28:47;58343.00;;;-145.31;100.00
50282;BME280;36176;51.506;10.272;2022-12-18T01:31:20;58343.00;;;-145.31;100.00
50282;BME280;36176;51.506;10.272;2022-12-18T01:33:49;58343.00;;;-145.31;100.00
50282;BME280;36176;51.506;10.272;2022-12-18T01:36:22;58343.00;;;-145.31;100.00
50282;BME280;36176;51.506;10.272;2022-12-18T01:38:50;58343.00;;;-145.31;100.00
50282;BME280;36176;51.506;10.272;2022-12-18T01:41:24;58343.00;;;-145.31;100.00
50282;BME280;36176;51.506;10.272;2022-12-18T01:43:56;58343.00;;;-145.31;100.00
50282;BME280;36176;51.506;10.272;2022-12-18T01:46:26;58343.00;;;-145.31;100.00
50282;BME280;36176;51.506;10.272;2022-12-18T01:48:56;58343.00;;;-145.31;100.00
50282;BME280;36176;51.506;10.272;2022-12-18T01:51:25;58343.00;;;-145.31;100.00
50282;BME280;36176;51.506;10.272;2022-12-18T01:53:53;58343.00;;;-145.31;100.00
50282;BME280;36176;51.506;10.272;2022-12-18T01:56:21;58343.00;;;-145.31;100.00
50282;BME280;36176;51.506;10.272;2022-12-18T01:58:54;58343.00;;;-145.31;100.00
50282;BME280;36176;51.506;10.272;2022-12-18T02:01:24;100904.19;;;-12.53;81.66
50282;BME280;36176;51.506;10.272;2022-12-18T02:03:52;100949.50;;;-12.87;82.09
50282;BME280;36176;51.506;10.272;2022-12-18T02:06:35;100950.41;;;-12.87;81.88
50282;BME280;36176;51.506;10.272;2022-12-18T02:09:14;100946.97;;;-12.87;81.94
50282;BME280;36176;51.506;10.272;2022-12-18T02:11:52;100941.41;;;-12.93;81.53
50282;BME280;36176;51.506;10.272;2022-12-18T02:14:38;100937.97;;;-12.94;81.70
50282;BME280;36176;51.506;10.272;2022-12-18T02:17:13;100946.53;;;-12.93;81.51
50282;BME280;36176;51.506;10.272;2022-12-18T02:20:23;100943.66;;;-12.98;80.83
50282;BME280;36176;51.506;10.272;2022-12-18T02:26:12;100942.44;;;-13.03;80.52
50282;BME280;36176;51.506;10.272;2022-12-18T02:28:49;100938.88;;;-13.05;80.38
50282;BME280;36176;51.506;10.272;2022-12-18T02:31:25;100946.88;;;-13.12;80.74
50282;BME280;36176;51.506;10.272;2022-12-18T02:33:56;100939.81;;;-13.16;80.76
50282;BME280;36176;51.506;10.272;2022-12-18T02:36:27;100936.28;;;-13.18;81.00
50282;BME280;36176;51.506;10.272;2022-12-18T02:38:55;100931.38;;;-13.15;81.56
50282;BME280;36176;51.506;10.272;2022-12-18T02:41:23;100930.63;;;-13.14;80.96
50282;BME280;36176;51.506;10.272;2022-12-18T02:43:59;100933.81;;;-13.17;81.00
50282;BME280;36176;51.506;10.272;2022-12-18T02:46:28;100930.06;;;-13.22;80.70
50282;BME280;36176;51.506;10.272;2022-12-18T02:57:37;100952.69;;;-13.27;81.31
50282;BME280;36176;51.506;10.272;2022-12-18T03:00:28;100938.66;;;-13.33;81.55
50282;BME280;36176;51.506;10.272;2022-12-18T03:03:02;100931.44;;;-13.39;81.20
50282;BME280;36176;51.506;10.272;2022-12-18T03:05:34;100942.44;;;-13.40;81.13
50282;BME280;36176;51.506;10.272;2022-12-18T03:08:06;100947.63;;;-13.38;81.82
50282;BME280;36176;51.506;10.272;2022-12-18T03:10:39;100940.88;;;-13.38;81.88
50282;BME280;36176;51.506;10.272;2022-12-18T03:13:20;100943.44;;;-13.38;81.66
50282;BME280;36176;51.506;10.272;2022-12-18T03:15:50;100937.88;;;-13.32;81.69
50282;BME280;36176;51.506;10.272;2022-12-18T03:18:25;100941.53;;;-13.29;81.71
50282;BME280;36176;51.506;10.272;2022-12-18T03:20:56;100947.56;;;-13.27;82.07
50282;BME280;36176;51.506;10.272;2022-12-18T03:23:27;100955.34;;;-13.25;81.47
50282;BME280;36176;51.506;10.272;2022-12-18T03:26:00;100959.56;;;-13.25;81.21
50282;BME280;36176;51.506;10.272;2022-12-18T03:28:36;100958.69;;;-13.26;81.31
50282;BME280;36176;51.506;10.272;2022-12-18T03:31:08;100954.56;;;-13.24;82.09
50282;BME280;36176;51.506;10.272;2022-12-18T03:33:45;100950.56;;;-13.20;81.75
50282;BME280;36176;51.506;10.272;2022-12-18T03:36:14;100939.16;;;-13.25;80.80
50282;BME280;36176;51.506;10.272;2022-12-18T03:38:41;100925.31;;;-13.29;81.33
50282;BME280;36176;51.506;10.272;2022-12-18T03:44:15;100922.56;;;-13.32;80.94
50282;BME280;36176;51.506;10.272;2022-12-18T03:47:06;100920.00;;;-13.32;80.52
50282;BME280;36176;51.506;10.272;2022-12-18T03:53:00;100924.59;;;-13.40;81.00
50282;BME280;36176;51.506;10.272;2022-12-18T03:55:33;58343.00;;;-145.31;100.00
50282;BME280;36176;51.506;10.272;2022-12-18T03:58:02;58343.00;;;-145.31;100.00
50282;BME280;36176;51.506;10.272;2022-12-18T04:00:33;58343.00;;;-145.31;100.00
50282;BME280;36176;51.506;10.272;2022-12-18T04:03:02;58343.00;;;-145.31;100.00
50282;BME280;36176;51.506;10.272;2022-12-18T14:46:34;100780.78;;;10.42;55.57
50282;BME280;36176;51.506;10.272;2022-12-18T14:54:15;100759.44;;;7.94;40.80
50282;BME280;36176;51.506;10.272;2022-12-18T14:59:37;100762.56;;;2.15;51.84
50282;BME280;36176;51.506;10.272;2022-12-18T15:07:42;100790.13;;;-1.45;61.20
50282;BME280;36176;51.506;10.272;2022-12-18T15:18:16;100762.28;;;-3.20;67.83
50282;BME280;36176;51.506;10.272;2022-12-18T15:23:22;100755.44;;;-3.75;70.46
50282;BME280;36176;51.506;10.272;2022-12-18T15:25:59;100757.53;;;-3.91;71.30
50282;BME280;36176;51.506;10.272;2022-12-18T15:28:49;100761.50;;;-4.02;72.92
50282;BME280;36176;51.506;10.272;2022-12-18T15:33:59;100748.00;;;-4.44;76.19
50282;BME280;36176;51.506;10.272;2022-12-18T15:36:28;100745.94;;;-4.55;76.04
50282;BME280;36176;51.506;10.272;2022-12-18T15:39:03;100743.03;;;-4.64;77.15
50282;BME280;36176;51.506;10.272;2022-12-18T15:41:34;100744.59;;;-4.69;76.94
50282;BME280;36176;51.506;10.272;2022-12-18T15:44:03;100759.19;;;-4.71;76.55
50282;BME280;36176;51.506;10.272;2022-12-18T15:46:33;100756.53;;;-4.73;76.97
50282;BME280;36176;51.506;10.272;2022-12-18T15:49:02;100749.47;;;-4.77;77.88
50282;BME280;36176;51.506;10.272;2022-12-18T15:53:59;100744.13;;;-4.81;77.74
50282;BME280;36176;51.506;10.272;2022-12-18T15:56:27;100740.66;;;-4.83;78.18
50282;BME280;36176;51.506;10.272;2022-12-18T15:59:18;100735.41;;;-4.85;77.41
50282;BME280;36176;51.506;10.272;2022-12-18T16:01:48;100747.41;;;-4.87;78.26
50282;BME280;36176;51.506;10.272;2022-12-18T16:04:18;100749.81;;;-4.92;78.92
50282;BME280;36176;51.506;10.272;2022-12-18T16:06:51;100737.72;;;-4.93;78.56
50282;BME280;36176;51.506;10.272;2022-12-18T16:09:50;100738.53;;;-4.94;78.57
50282;BME280;36176;51.506;10.272;2022-12-18T16:12:20;100741.03;;;-4.97;78.73
50282;BME280;36176;51.506;10.272;2022-12-18T16:14:48;100730.53;;;-5.01;79.18
50282;BME280;36176;51.506;10.272;2022-12-18T16:17:15;100720.25;;;-5.00;78.86
50282;BME280;36176;51.506;10.272;2022-12-18T16:19:42;100718.63;;;-4.96;78.56
50282;BME280;36176;51.506;10.272;2022-12-18T16:22:20;100723.88;;;-4.95;79.52
50282;BME280;36176;51.506;10.272;2022-12-18T16:24:49;100726.56;;;-4.92;78.99
50282;BME280;36176;51.506;10.272;2022-12-18T16:27:17;100721.44;;;-4.90;78.80
50282;BME280;36176;51.506;10.272;2022-12-18T16:29:44;100718.97;;;-4.87;79.28
50282;BME280;36176;51.506;10.272;2022-12-18T16:32:14;100719.91;;;-4.85;78.59
50282;BME280;36176;51.506;10.272;2022-12-18T16:34:42;100713.00;;;-4.84;78.96
50282;BME280;36176;51.506;10.272;2022-12-18T16:37:12;100705.34;;;-4.81;79.01
50282;BME280;36176;51.506;10.272;2022-12-18T16:39:40;100700.19;;;-4.81;78.26
50282;BME280;36176;51.506;10.272;2022-12-18T16:42:13;100690.59;;;-4.85;79.08
50282;BME280;36176;51.506;10.272;2022-12-18T16:44:43;100691.22;;;-4.91;78.96
50282;BME280;36176;51.506;10.272;2022-12-18T16:47:11;100686.13;;;-4.89;79.28
50282;BME280;36176;51.506;10.272;2022-12-18T16:49:41;100680.19;;;-4.87;79.27
50282;BME280;36176;51.506;10.272;2022-12-18T16:52:09;100690.59;;;-4.85;78.76
50282;BME280;36176;51.506;10.272;2022-12-18T16:54:36;100691.31;;;-4.89;78.76
50282;BME280;36176;51.506;10.272;2022-12-18T16:57:04;100683.63;;;-4.86;79.46
50282;BME280;36176;51.506;10.272;2022-12-18T16:59:32;100683.28;;;-4.97;80.52
50282;BME280;36176;51.506;10.272;2022-12-18T17:02:00;100678.13;;;-4.97;80.21
50282;BME280;36176;51.506;10.272;2022-12-18T17:04:27;100671.28;;;-4.95;80.33
50282;BME280;36176;51.506;10.272;2022-12-18T17:06:54;100669.75;;;-4.90;80.00
50282;BME280;36176;51.506;10.272;2022-12-18T17:09:22;100679.16;;;-4.92;79.98
50282;BME280;36176;51.506;10.272;2022-12-18T17:11:52;100676.56;;;-4.92;79.80
50282;BME280;36176;51.506;10.272;2022-12-18T17:14:22;100674.69;;;-4.96;80.04
50282;BME280;36176;51.506;10.272;2022-12-18T17:16:53;100672.88;;;-4.99;81.22
50282;BME280;36176;51.506;10.272;2022-12-18T17:19:40;100667.69;;;-5.00;81.24
50282;BME280;36176;51.506;10.272;2022-12-18T17:22:07;100661.44;;;-5.05;81.55
50282;BME280;36176;51.506;10.272;2022-12-18T17:24:35;100662.34;;;-5.05;80.79
50282;BME280;36176;51.506;10.272;2022-12-18T17:27:03;100658.84;;;-5.05;81.99
50282;BME280;36176;51.506;10.272;2022-12-18T17:29:30;100655.47;;;-5.04;81.01
50282;BME280;36176;51.506;10.272;2022-12-18T17:32:00;100655.66;;;-4.98;81.07
50282;BME280;36176;51.506;10.272;2022-12-18T17:34:27;100665.22;;;-4.96;81.14
50282;BME280;36176;51.506;10.272;2022-12-18T17:36:55;100662.00;;;-4.90;81.28
50282;BME280;36176;51.506;10.272;2022-12-18T17:39:23;100664.59;;;-4.88;80.58
50282;BME280;36176;51.506;10.272;2022-12-18T17:41:50;100668.19;;;-4.85;80.89
50282;BME280;36176;51.506;10.272;2022-12-18T17:44:17;100664.91;;;-4.81;81.05
50282;BME280;36176;51.506;10.272;2022-12-18T17:46:45;100658.78;;;-4.83;80.60
50282;BME280;36176;51.506;10.272;2022-12-18T17:49:13;100654.41;;;-4.84;80.68
50282;BME280;36176;51.506;10.272;2022-12-18T17:51:40;100663.97;;;-4.83;80.29
50282;BME280;36176;51.506;10.272;2022-12-18T17:54:10;100661.47;;;-4.80;81.19
50282;BME280;36176;51.506;10.272;2022-12-18T17:56:38;100650.34;;;-4.77;81.34
50282;BME280;36176;51.506;10.272;2022-12-18T17:59:05;100658.19;;;-4.74;81.06
50282;BME280;36176;51.506;10.272;2022-12-18T18:01:34;100662.66;;;-4.70;80.65
50282;BME280;36176;51.506;10.272;2022-12-18T18:04:10;100665.22;;;-4.70;80.70
50282;BME280;36176;51.506;10.272;2022-12-18T18:06:37;100667.03;;;-4.67;80.18
50282;BME280;36176;51.506;10.272;2022-12-18T18:09:06;100665.44;;;-4.64;80.13
50282;BME280;36176;51.506;10.272;2022-12-18T18:11:42;100666.38;;;-4.62;80.12
50282;BME280;36176;51.506;10.272;2022-12-18T18:14:27;100669.78;;;-4.63;80.35
50282;BME280;36176;51.506;10.272;2022-12-18T18:16:55;100674.97;;;-4.63;80.73
50282;BME280;36176;51.506;10.272;2022-12-18T18:19:28;100668.06;;;-4.62;80.72
50282;BME280;36176;51.506;10.272;2022-12-18T18:21:55;100647.44;;;-4.61;81.38
50282;BME280;36176;51.506;10.272;2022-12-18T18:24:23;100633.56;;;-4.63;80.31
50282;BME280;36176;51.506;10.272;2022-12-18T18:26:52;100630.13;;;-4.63;80.47
50282;BME280;36176;51.506;10.272;2022-12-18T18:29:21;100628.31;;;-4.66;81.46
50282;BME280;36176;51.506;10.272;2022-12-18T18:31:52;100625.50;;;-4.72;81.44
50282;BME280;36176;51.506;10.272;2022-12-18T18:34:25;100625.50;;;-4.72;81.73
50282;BME280;36176;51.506;10.272;2022-12-18T18:36:53;100627.31;;;-4.70;81.31
50282;BME280;36176;51.506;10.272;2022-12-18T18:39:20;100627.53;;;-4.63;81.19
50282;BME280;36176;51.506;10.272;2022-12-18T18:41:47;100644.84;;;-4.61;80.89
50282;BME280;36176;51.506;10.272;2022-12-18T18:44:16;100646.59;;;-4.60;81.45
50282;BME280;36176;51.506;10.272;2022-12-18T18:46:44;100643.34;;;-4.54;81.85
50282;BME280;36176;51.506;10.272;2022-12-18T18:49:12;100645.97;;;-4.53;81.41
50282;BME280;36176;51.506;10.272;2022-12-18T18:51:40;100652.06;;;-4.52;82.05
50282;BME280;36176;51.506;10.272;2022-12-18T18:54:11;100661.50;;;-4.53;81.53
50282;BME280;36176;51.506;10.272;2022-12-18T18:56:39;100657.00;;;-4.58;81.48
50282;BME280;36176;51.506;10.272;2022-12-18T18:59:34;100658.81;;;-4.56;82.10
50282;BME280;36176;51.506;10.272;2022-12-18T19:02:01;100650.25;;;-4.55;82.00
50282;BME280;36176;51.506;10.272;2022-12-18T19:04:32;100644.22;;;-4.54;81.81
50282;BME280;36176;51.506;10.272;2022-12-18T19:07:00;100655.56;;;-4.50;81.81
50282;BME280;36176;51.506;10.272;2022-12-18T19:09:32;100652.91;;;-4.52;82.58
50282;BME280;36176;51.506;10.272;2022-12-18T19:12:03;100638.19;;;-4.54;81.98
50282;BME280;36176;51.506;10.272;2022-12-18T19:14:48;100625.97;;;-4.58;81.66
50282;BME280;36176;51.506;10.272;2022-12-18T19:17:15;100610.28;;;-4.63;81.25
50282;BME280;36176;51.506;10.272;2022-12-18T19:19:43;100609.19;;;-4.71;82.25
50282;BME280;36176;51.506;10.272;2022-12-18T19:22:10;100595.22;;;-4.76;82.29
50282;BME280;36176;51.506;10.272;2022-12-18T19:24:37;100589.06;;;-4.80;82.86
50282;BME280;36176;51.506;10.272;2022-12-18T19:27:04;100580.44;;;-4.80;82.43
50282;BME280;36176;51.506;10.272;2022-12-18T19:29:31;100582.25;;;-4.78;82.57
50282;BME280;36176;51.506;10.272;2022-12-18T19:31:59;100574.41;;;-4.81;82.59
50282;BME280;36176;51.506;10.272;2022-12-18T19:34:26;100576.13;;;-4.80;82.48
50282;BME280;36176;51.506;10.272;2022-12-18T19:36:54;100571.81;;;-4.81;82.91
50282;BME280;36176;51.506;10.272;2022-12-18T19:39:25;100571.84;;;-4.79;82.54
50282;BME280;36176;51.506;10.272;2022-12-18T19:41:53;100575.41;;;-4.76;81.24
50282;BME280;36176;51.506;10.272;2022-12-18T19:44:20;100583.25;;;-4.73;81.72
50282;BME280;36176;51.506;10.272;2022-12-18T19:46:49;100578.16;;;-4.71;81.02
50282;BME280;36176;51.506;10.272;2022-12-18T19:49:17;100569.56;;;-4.70;82.32
50282;BME280;36176;51.506;10.272;2022-12-18T19:51:45;100572.13;;;-4.72;81.23
50282;BME280;36176;51.506;10.272;2022-12-18T19:54:12;100570.44;;;-4.70;81.71
50282;BME280;36176;51.506;10.272;2022-12-18T19:56:44;100579.09;;;-4.69;81.53
50282;BME280;36176;51.506;10.272;2022-12-18T19:59:11;100586.06;;;-4.66;81.34
50282;BME280;36176;51.506;10.272;2022-12-18T20:01:38;100584.50;;;-4.61;80.88
50282;BME280;36176;51.506;10.272;2022-12-18T20:04:06;100595.91;;;-4.55;80.74
50282;BME280;36176;51.506;10.272;2022-12-18T20:06:48;100578.78;;;-4.51;80.16
50282;BME280;36176;51.506;10.272;2022-12-18T20:09:17;100581.41;;;-4.50;80.08
50282;BME280;36176;51.506;10.272;2022-12-18T20:11:46;100576.28;;;-4.48;80.28
50282;BME280;36176;51.506;10.272;2022-12-18T20:14:14;100590.13;;;-4.47;79.42
50282;BME280;36176;51.506;10.272;2022-12-18T20:16:57;100586.75;;;-4.43;79.55
50282;BME280;36176;51.506;10.272;2022-12-18T20:19:26;100583.41;;;-4.41;79.86
50282;BME280;36176;51.506;10.272;2022-12-18T20:21:53;100583.50;;;-4.38;80.20
50282;BME280;36176;51.506;10.272;2022-12-18T20:24:21;100576.75;;;-4.33;79.47
50282;BME280;36176;51.506;10.272;2022-12-18T20:26:48;100581.28;;;-4.25;80.17
50282;BME280;36176;51.506;10.272;2022-12-18T20:29:15;100578.06;;;-4.18;79.21
50282;BME280;36176;51.506;10.272;2022-12-18T20:31:43;100578.28;;;-4.11;78.93
50282;BME280;36176;51.506;10.272;2022-12-18T20:34:10;100575.91;;;-4.03;77.98
50282;BME280;36176;51.506;10.272;2022-12-18T20:36:38;100572.75;;;-3.93;78.66
50282;BME280;36176;51.506;10.272;2022-12-18T20:39:07;100577.19;;;-3.89;78.63
50282;BME280;36176;51.506;10.272;2022-12-18T20:41:37;100552.22;;;-3.87;78.72
50282;BME280;36176;51.506;10.272;2022-12-18T20:44:13;100558.38;;;-3.83;77.57
50282;BME280;36176;51.506;10.272;2022-12-18T20:46:51;100541.06;;;-3.84;77.08
50282;BME280;36176;51.506;10.272;2022-12-18T20:49:19;100540.25;;;-3.83;76.79
50282;BME280;36176;51.506;10.272;2022-12-18T20:51:51;100541.25;;;-3.78;77.12
50282;BME280;36176;51.506;10.272;2022-12-18T20:54:20;100542.38;;;-3.68;76.78
50282;BME280;36176;51.506;10.272;2022-12-18T20:56:48;100528.88;;;-3.56;75.78
50282;BME280;36176;51.506;10.272;2022-12-18T20:59:15;100521.47;;;-3.43;75.86
50282;BME280;36176;51.506;10.272;2022-12-18T21:01:43;100521.81;;;-3.29;74.39
50282;BME280;36176;51.506;10.272;2022-12-18T21:04:16;100520.63;;;-3.08;73.86
50282;BME280;36176;51.506;10.272;2022-12-18T21:06:46;100506.97;;;-3.00;73.29
50282;BME280;36176;51.506;10.272;2022-12-18T21:09:22;100504.38;;;-3.01;74.45
50282;BME280;36176;51.506;10.272;2022-12-18T21:11:49;100506.00;;;-3.05;73.33
50282;BME280;36176;51.506;10.272;2022-12-18T21:14:40;100518.03;;;-3.08;74.72
50282;BME280;36176;51.506;10.272;2022-12-18T21:17:07;100511.06;;;-3.11;74.09
50282;BME280;36176;51.506;10.272;2022-12-18T21:19:35;100512.69;;;-3.14;74.46
50282;BME280;36176;51.506;10.272;2022-12-18T21:22:02;100510.13;;;-3.13;74.59
50282;BME280;36176;51.506;10.272;2022-12-18T21:24:30;100507.59;;;-3.10;74.85
50282;BME280;36176;51.506;10.272;2022-12-18T21:26:59;100502.66;;;-3.01;74.03
50282;BME280;36176;51.506;10.272;2022-12-18T21:29:26;100491.47;;;-2.98;74.18
50282;BME280;36176;51.506;10.272;2022-12-18T21:31:53;100484.66;;;-2.93;74.46
50282;BME280;36176;51.506;10.272;2022-12-18T21:34:21;100482.13;;;-2.91;74.64
50282;BME280;36176;51.506;10.272;2022-12-18T21:36:51;100484.72;;;-2.91;73.92
50282;BME280;36176;51.506;10.272;2022-12-18T21:39:19;100481.38;;;-2.87;73.68
50282;BME280;36176;51.506;10.272;2022-12-18T21:41:49;100498.06;;;-2.74;73.80
50282;BME280;36176;51.506;10.272;2022-12-18T21:44:34;100493.13;;;-2.64;73.89
50282;BME280;36176;51.506;10.272;2022-12-18T21:47:09;100491.09;;;-2.38;71.91
50282;BME280;36176;51.506;10.272;2022-12-18T21:49:49;100494.94;;;-2.20;71.95
50282;BME280;36176;51.506;10.272;2022-12-18T21:52:16;100484.00;;;-2.05;71.08
50282;BME280;36176;51.506;10.272;2022-12-18T21:54:43;100492.94;;;-1.91;70.02
50282;BME280;36176;51.506;10.272;2022-12-18T21:57:10;100482.78;;;-1.79;69.50
50282;BME280;36176;51.506;10.272;2022-12-18T21:59:40;100481.94;;;-1.76;69.74
50282;BME280;36176;51.506;10.272;2022-12-18T22:02:17;100472.56;;;-1.69;69.97
50282;BME280;36176;51.506;10.272;2022-12-18T22:04:45;100469.16;;;-1.65;68.89
50282;BME280;36176;51.506;10.272;2022-12-18T22:07:15;100460.59;;;-1.60;69.19
50282;BME280;36176;51.506;10.272;2022-12-18T22:09:42;100451.13;;;-1.56;68.96
50282;BME280;36176;51.506;10.272;2022-12-18T22:12:11;100455.53;;;-1.52;69.38
50282;BME280;36176;51.506;10.272;2022-12-18T22:14:39;100466.97;;;-1.42;68.90
50282;BME280;36176;51.506;10.272;2022-12-18T22:17:06;100473.16;;;-1.34;69.83
50282;BME280;36176;51.506;10.272;2022-12-18T22:19:34;100479.22;;;-1.35;69.61
50282;BME280;36176;51.506;10.272;2022-12-18T22:22:08;100476.63;;;-1.35;69.82
50282;BME280;36176;51.506;10.272;2022-12-18T22:24:35;100480.91;;;-1.37;69.48
50282;BME280;36176;51.506;10.272;2022-12-18T22:27:02;100489.66;;;-1.32;69.50
50282;BME280;36176;51.506;10.272;2022-12-18T22:29:30;100484.50;;;-1.31;69.39
50282;BME280;36176;51.506;10.272;2022-12-18T22:32:15;100472.41;;;-1.29;69.62
50282;BME280;36176;51.506;10.272;2022-12-18T22:34:56;100474.19;;;-1.26;69.65
50282;BME280;36176;51.506;10.272;2022-12-18T22:37:31;100467.28;;;-1.24;69.12
50282;BME280;36176;51.506;10.272;2022-12-18T22:39:59;100467.28;;;-1.24;67.94
50282;BME280;36176;51.506;10.272;2022-12-18T22:42:30;100463.00;;;-1.20;68.54
50282;BME280;36176;51.506;10.272;2022-12-18T22:44:59;100463.00;;;-1.20;68.37
50282;BME280;36176;51.506;10.272;2022-12-18T22:47:27;100463.00;;;-1.22;68.36
50282;BME280;36176;51.506;10.272;2022-12-18T22:49:56;100473.38;;;-1.22;69.47
50282;BME280;36176;51.506;10.272;2022-12-18T22:52:24;100470.78;;;-1.22;67.79
50282;BME280;36176;51.506;10.272;2022-12-18T22:54:52;100469.06;;;-1.21;68.82
50282;BME280;36176;51.506;10.272;2022-12-18T22:57:21;100456.09;;;-1.18;69.06
50282;BME280;36176;51.506;10.272;2022-12-18T22:59:49;100458.69;;;-1.18;69.02
50282;BME280;36176;51.506;10.272;2022-12-18T23:02:16;100450.94;;;-1.15;68.71
50282;BME280;36176;51.506;10.272;2022-12-18T23:04:47;100443.09;;;-1.18;68.96
50282;BME280;36176;51.506;10.272;2022-12-18T23:07:14;100440.44;;;-1.21;68.72
50282;BME280;36176;51.506;10.272;2022-12-18T23:09:42;100436.19;;;-1.16;68.41
50282;BME280;36176;51.506;10.272;2022-12-18T23:12:14;100435.41;;;-1.12;68.14
50282;BME280;36176;51.506;10.272;2022-12-18T23:14:42;100425.91;;;-1.10;69.15
50282;BME280;36176;51.506;10.272;2022-12-18T23:17:09;100421.50;;;-1.14;69.22
50282;BME280;36176;51.506;10.272;2022-12-18T23:19:36;100418.75;;;-1.23;69.08
50282;BME280;36176;51.506;10.272;2022-12-18T23:22:03;100424.81;;;-1.24;69.55
50282;BME280;36176;51.506;10.272;2022-12-18T23:24:37;100424.81;;;-1.24;69.63
50282;BME280;36176;51.506;10.272;2022-12-18T23:27:04;100418.72;;;-1.25;70.15
50282;BME280;36176;51.506;10.272;2022-12-18T23:29:36;100424.84;;;-1.21;69.98
50282;BME280;36176;51.506;10.272;2022-12-18T23:32:03;100426.66;;;-1.17;69.63
50282;BME280;36176;51.506;10.272;2022-12-18T23:34:30;100421.56;;;-1.08;69.53
50282;BME280;36176;51.506;10.272;2022-12-18T23:36:58;100399.91;;;-1.09;68.71
50282;BME280;36176;51.506;10.272;2022-12-18T23:39:26;100405.97;;;-1.08;68.56
50282;BME280;36176;51.506;10.272;2022-12-18T23:41:59;100409.44;;;-1.09;69.26
50282;BME280;36176;51.506;10.272;2022-12-18T23:44:26;100402.50;;;-1.10;68.69
50282;BME280;36176;51.506;10.272;2022-12-18T23:47:12;100389.53;;;-1.05;68.62
50282;BME280;36176;51.506;10.272;2022-12-18T23:49:39;100400.88;;;-1.02;68.98
50282;BME280;36176;51.506;10.272;2022-12-18T23:52:07;100391.38;;;-1.00;69.11
50282;BME280;36176;51.506;10.272;2022-12-18T23:54:34;100392.25;;;-0.98;68.70
50282;BME280;36176;51.506;10.272;2022-12-18T23:57:01;100386.22;;;-0.95;68.43
50282;BME280;36176;51.506;10.272;2022-12-18T23:59:28;100392.41;;;-0.87;68.15
